Time;durP1;ratioP1;P1;durP2;ratioP2;P2;SDS_P1;SDS_P2;PMS_P1;PMS_P2;Temp;Humidity;BMP_temperature;BMP_pressure;BME280_temperature;BME280_humidity;BME280_pressure;Samples;Min_cycle;Max_cycle;Signal;HPM_P1;HPM_P2
2022/08/19 00:00:38;;;;;;;17.05;10.13;;;;;;;24.89;54.14;100120.27;1744306;79;99192;-63
2022/08/19 00:03:06;;;;;;;15.35;11.15;;;;;;;24.87;54.17;100111.87;1753119;79;25799;-62
2022/08/19 00:05:33;;;;;;;16.70;10.48;;;;;;;24.89;54.23;100105.20;1749682;79;99346;-63
2022/08/19 00:08:05;;;;;;;16.82;11.08;;;;;;;24.90;54.36;100104.68;1744396;79;25784;-63
2022/08/19 00:10:31;;;;;;;20.95;11.25;;;;;;;24.91;54.38;100103.13;1755983;79;27435;-62
2022/08/19 00:12:57;;;;;;;14.07;9.78;;;;;;;24.93;54.40;100101.08;1755310;79;98979;-63
2022/08/19 00:15:23;;;;;;;20.80;10.43;;;;;;;24.92;54.45;100096.62;1746296;79;25891;-62
2022/08/19 00:17:49;;;;;;;20.40;10.45;;;;;;;24.92;54.50;100105.36;1755934;79;98865;-62
2022/08/19 00:20:19;;;;;;;16.37;10.65;;;;;;;24.91;54.54;100099.02;1757149;79;25686;-62
2022/08/19 00:22:47;;;;;;;17.93;10.63;;;;;;;24.88;54.55;100093.89;1755237;79;27506;-62
2022/08/19 00:25:15;;;;;;;17.85;10.45;;;;;;;24.86;54.63;100095.08;1754587;79;98931;-62
2022/08/19 00:27:41;;;;;;;14.15;9.85;;;;;;;24.88;54.67;100091.14;1757370;79;25828;-62
2022/08/19 00:30:10;;;;;;;19.02;10.35;;;;;;;24.89;54.66;100086.00;1748555;79;99146;-62
2022/08/19 00:32:36;;;;;;;11.18;10.03;;;;;;;24.95;54.74;100100.91;1753258;79;25750;-62
2022/08/19 00:35:03;;;;;;;19.17;11.10;;;;;;;25.01;54.73;100096.14;1758062;79;99229;-62
2022/08/19 00:37:30;;;;;;;16.32;11.60;;;;;;;25.04;54.65;100091.68;1754944;79;26164;-62
2022/08/19 00:39:57;;;;;;;17.67;10.60;;;;;;;25.02;54.63;100091.00;1775460;79;36144;-62
2022/08/19 00:42:23;;;;;;;16.80;10.30;;;;;;;25.03;54.71;100089.97;1758890;79;99151;-61
2022/08/19 00:44:50;;;;;;;14.47;10.00;;;;;;;25.05;54.64;100090.65;1744647;79;25863;-61
2022/08/19 00:47:16;;;;;;;15.53;9.85;;;;;;;25.04;54.65;100101.28;1761604;79;98322;-61
2022/08/19 00:49:50;;;;;;;16.42;9.70;;;;;;;25.04;54.65;100097.68;1763533;79;25729;-61
2022/08/19 00:52:28;;;;;;;17.77;10.60;;;;;;;25.06;54.64;100094.25;1754431;79;25756;-61
2022/08/19 00:54:56;;;;;;;13.75;9.85;;;;;;;25.08;54.67;100090.30;1749917;79;99067;-61
2022/08/19 00:57:28;;;;;;;15.72;9.98;;;;;;;25.03;54.59;100081.73;1762733;79;25773;-60
2022/08/19 00:59:59;;;;;;;14.38;10.05;;;;;;;24.99;54.61;100089.11;1760947;79;98895;-60
2022/08/19 01:02:27;;;;;;;11.78;9.50;;;;;;;25.01;54.76;100092.02;1758003;79;26308;-61
2022/08/19 01:04:53;;;;;;;14.60;10.68;;;;;;;25.03;54.67;100083.11;1753057;79;25713;-61
2022/08/19 01:07:19;;;;;;;16.60;10.72;;;;;;;25.01;54.71;100081.06;1750224;79;98948;-60
2022/08/19 01:09:46;;;;;;;20.27;9.65;;;;;;;25.00;54.68;100078.48;1753226;79;25812;-61
2022/08/19 01:12:13;;;;;;;13.38;10.03;;;;;;;24.96;54.72;100074.34;1741059;79;98808;-61
2022/08/19 01:14:40;;;;;;;12.80;9.80;;;;;;;24.94;54.74;100073.15;1753421;79;25778;-61
2022/08/19 01:17:09;;;;;;;16.27;10.38;;;;;;;24.92;54.79;100080.17;1755562;79;99072;-61
2022/08/19 01:19:40;;;;;;;13.13;9.60;;;;;;;24.92;54.80;100073.83;1748215;79;26106;-61
2022/08/19 01:22:18;;;;;;;;;;;;;;;24.87;54.84;100070.23;1749329;79;25746;-61
2022/08/19 01:24:44;;;;;;;14.47;9.55;;;;;;;24.86;54.93;100069.04;1747039;79;83915;-61
2022/08/19 01:27:10;;;;;;;11.25;9.90;;;;;;;24.83;54.90;100070.76;1757500;79;27150;-61
2022/08/19 01:29:40;;;;;;;13.22;10.20;;;;;;;24.79;54.98;100068.02;1757444;79;99121;-61
2022/08/19 01:32:11;;;;;;;18.05;10.18;;;;;;;24.84;54.97;100065.10;1751979;79;26121;-65
2022/08/19 01:34:37;;;;;;;;;;;;;;;24.85;55.08;100078.30;1754104;79;25791;-65
2022/08/19 01:37:11;;;;;;;19.65;10.40;;;;;;;24.88;55.07;100066.47;1755220;79;84928;-65
2022/08/19 01:39:39;;;;;;;13.30;9.30;;;;;;;24.84;55.05;100066.47;1747914;79;25806;-65
2022/08/19 01:42:10;;;;;;;12.90;9.60;;;;;;;24.84;55.08;100056.88;1747729;79;98899;-65
2022/08/19 01:44:36;;;;;;;14.00;9.38;;;;;;;24.82;55.15;100052.08;1754573;79;26068;-65
2022/08/19 01:47:03;;;;;;;15.98;9.23;;;;;;;24.83;55.18;100049.68;1757680;79;99129;-64
2022/08/19 01:49:30;;;;;;;16.12;9.38;;;;;;;24.84;55.20;100037.69;1746217;79;29123;-65
2022/08/19 01:51:57;;;;;;;14.18;9.33;;;;;;;24.81;55.18;100039.41;1746513;79;26492;-66
2022/08/19 01:54:24;;;;;;;15.50;9.63;;;;;;;24.79;55.21;100041.98;1753777;79;98932;-64
2022/08/19 01:56:55;;;;;;;13.58;9.50;;;;;;;24.76;55.23;100034.95;1751698;79;26026;-64
2022/08/19 01:59:24;;;;;;;13.22;9.90;;;;;;;24.75;55.26;100028.27;1755942;79;99091;-65
2022/08/19 02:01:50;;;;;;;14.73;9.78;;;;;;;24.71;55.32;100031.02;1748633;79;28012;-67
2022/08/19 02:04:15;;;;;;;12.68;9.08;;;;;;;24.68;55.32;100025.88;1757744;79;26778;-65
2022/08/19 02:06:41;;;;;;;14.40;9.48;;;;;;;24.64;55.40;100031.36;1755197;79;98747;-65
2022/08/19 02:09:08;;;;;;;23.90;10.88;;;;;;;24.46;55.46;100006.87;1724405;80;26984;-65
2022/08/19 02:11:37;;;;;;;17.60;10.30;;;;;;;24.56;55.50;100034.45;1708112;81;99282;-65
2022/08/19 02:14:07;;;;;;;11.93;9.53;;;;;;;24.52;55.57;100030.34;1709232;81;28322;-65
2022/08/19 02:16:35;;;;;;;15.28;10.72;;;;;;;24.48;55.64;100028.11;1734083;80;35313;-65
2022/08/19 02:19:00;;;;;;;20.62;8.85;;;;;;;24.44;55.75;100024.00;1716206;80;99122;-65
2022/08/19 02:21:29;;;;;;;17.48;9.73;;;;;;;24.40;55.85;100022.11;1725695;81;26212;-65
2022/08/19 02:23:55;;;;;;;15.32;10.18;;;;;;;24.36;55.93;100016.63;1726272;80;98916;-65
2022/08/19 02:26:22;;;;;;;14.13;9.83;;;;;;;24.36;56.02;100013.89;1725625;80;28260;-65
2022/08/19 02:28:48;;;;;;;13.15;9.40;;;;;;;24.35;56.08;100007.22;1726694;80;25879;-65
2022/08/19 02:31:18;;;;;;;16.12;9.58;;;;;;;24.33;56.17;100009.27;1721270;80;98804;-65
2022/08/19 02:33:46;;;;;;;11.50;9.53;;;;;;;24.32;56.27;100008.92;1722447;80;26226;-65
2022/08/19 02:36:15;;;;;;;19.45;9.50;;;;;;;24.30;56.28;100003.62;1731036;80;99191;-65
2022/08/19 02:38:43;;;;;;;16.40;9.95;;;;;;;24.27;56.37;99997.97;1724742;80;27378;-65
2022/08/19 02:41:25;;;;;;;12.18;10.00;;;;;;;24.27;56.46;99993.00;1720306;80;98837;-65
2022/08/19 02:43:51;;;;;;;18.65;9.98;;;;;;;24.28;56.52;99990.09;1706595;82;25854;-65
2022/08/19 02:46:28;;;;;;;14.93;10.43;;;;;;;24.32;56.57;99997.97;1720307;81;26464;-65
2022/08/19 02:48:57;;;;;;;16.05;9.78;;;;;;;24.32;56.58;100000.70;1723474;80;98906;-65
2022/08/19 02:51:31;;;;;;;13.93;9.60;;;;;;;24.30;56.63;99998.14;1718779;81;28148;-65
2022/08/19 02:53:58;;;;;;;18.40;9.28;;;;;;;24.30;56.67;100001.39;1729632;80;98688;-65
2022/08/19 02:56:26;;;;;;;14.15;10.03;;;;;;;24.30;56.69;100000.02;1719571;81;25840;-65
2022/08/19 02:58:52;;;;;;;18.25;9.80;;;;;;;24.29;56.72;99996.42;1719344;81;26111;-65
2022/08/19 03:01:28;;;;;;;12.40;9.73;;;;;;;24.29;56.73;99989.58;1732008;80;98562;-65
2022/08/19 03:03:55;;;;;;;13.58;10.05;;;;;;;24.28;56.78;99991.46;1720706;80;28609;-65
2022/08/19 03:06:22;;;;;;;13.88;10.20;;;;;;;24.28;56.86;99988.72;1715564;81;99418;-65
2022/08/19 03:08:49;;;;;;;16.60;9.35;;;;;;;24.27;56.83;99984.27;1724875;81;25762;-65
2022/08/19 03:11:25;;;;;;;19.10;11.08;;;;;;;24.24;56.92;99983.21;1719926;81;98952;-67
2022/08/19 03:13:53;;;;;;;14.93;9.75;;;;;;;24.24;56.98;99983.72;1712500;81;25689;-65
2022/08/19 03:16:25;;;;;;;15.90;10.03;;;;;;;24.24;57.02;99987.83;1722706;81;27395;-65
2022/08/19 03:18:52;;;;;;;15.58;10.45;;;;;;;24.22;57.01;99981.16;1730095;80;98776;-65
2022/08/19 03:21:23;;;;;;;15.68;10.30;;;;;;;24.16;57.04;99971.39;1718901;81;26711;-65
2022/08/19 03:23:56;;;;;;;12.85;9.75;;;;;;;24.12;57.17;99970.87;1720014;80;98881;-65
2022/08/19 03:26:22;;;;;;;14.45;9.93;;;;;;;24.12;57.20;99975.50;1725094;81;25958;-65
2022/08/19 03:28:49;;;;;;;14.63;9.58;;;;;;;24.09;57.19;99978.06;1715599;81;28212;-65
2022/08/19 03:31:22;;;;;;;17.20;10.15;;;;;;;24.03;57.27;99970.53;1723314;81;98609;-65
2022/08/19 03:33:50;;;;;;;20.05;11.63;;;;;;;24.02;57.31;99981.14;1711042;81;25829;-65
2022/08/19 03:36:21;;;;;;;14.20;9.98;;;;;;;23.98;57.38;99978.39;1724777;80;99315;-65
2022/08/19 03:38:51;;;;;;;16.48;10.10;;;;;;;23.95;57.50;99977.36;1720181;81;26463;-65
2022/08/19 03:41:21;;;;;;;19.48;11.22;;;;;;;23.95;57.53;99975.99;1717157;80;99040;-65
2022/08/19 03:43:49;;;;;;;16.45;10.40;;;;;;;23.93;57.57;99980.78;1720516;80;26373;-67
2022/08/19 03:46:23;;;;;;;14.93;10.93;;;;;;;23.91;57.62;99978.72;1721251;81;26482;-66
2022/08/19 03:48:55;;;;;;;11.40;10.05;;;;;;;23.86;57.62;99982.47;1718226;81;98886;-66
2022/08/19 03:51:28;;;;;;;17.07;10.28;;;;;;;23.81;57.70;99975.28;1724656;81;26303;-66
2022/08/19 03:53:55;;;;;;;16.97;11.08;;;;;;;23.75;57.81;99977.31;1731129;80;98924;-65
2022/08/19 03:56:22;;;;;;;14.15;10.60;;;;;;;23.74;57.91;99985.18;1722478;81;25863;-65
2022/08/19 03:58:50;;;;;;;17.10;10.85;;;;;;;23.73;58.00;99982.09;1718013;81;25758;-66
2022/08/19 04:01:20;;;;;;;18.95;11.50;;;;;;;23.71;58.07;99983.64;1721146;81;99020;-65
2022/08/19 04:03:46;;;;;;;16.85;10.38;;;;;;;23.70;58.09;99986.03;1721857;82;25763;-64
2022/08/19 04:06:24;;;;;;;14.15;10.75;;;;;;;23.66;58.18;99981.05;1696554;82;98977;-65
2022/08/19 04:08:57;;;;;;;14.28;10.32;;;;;;;23.64;58.22;99984.81;1720840;81;25711;-65
2022/08/19 04:11:23;;;;;;;;;;;;;;;23.63;58.27;100000.88;1729357;81;99025;-65
2022/08/19 04:13:51;;;;;;;16.12;11.10;;;;;;;23.63;58.41;100004.98;1708089;82;26028;-66
2022/08/19 04:16:20;;;;;;;12.35;10.18;;;;;;;23.61;58.34;100001.56;1724731;80;25730;-66
2022/08/19 04:18:48;;;;;;;15.05;10.80;;;;;;;23.60;58.36;99998.48;1729472;81;99026;-66
2022/08/19 04:21:24;;;;;;;17.10;11.12;;;;;;;23.60;58.42;100001.73;1705873;82;25916;-66
2022/08/19 04:23:50;;;;;;;14.78;10.60;;;;;;;23.59;58.48;99994.03;1707170;82;99041;-66
2022/08/19 04:26:20;;;;;;;14.55;11.38;;;;;;;23.60;58.51;99988.91;1699196;82;26703;-66
2022/08/19 04:28:47;;;;;;;15.35;11.25;;;;;;;23.54;58.55;99976.40;1727932;81;26217;-68
2022/08/19 04:31:17;;;;;;;22.45;10.32;;;;;;;23.61;58.60;99976.08;1721959;81;98811;-68
2022/08/19 04:33:43;;;;;;;14.07;10.30;;;;;;;23.58;58.62;99982.73;1721510;81;26579;-68
2022/08/19 04:36:20;;;;;;;18.40;11.12;;;;;;;23.57;58.65;99985.13;1724954;81;98811;-66
2022/08/19 04:38:49;;;;;;;15.80;10.85;;;;;;;23.58;58.73;100007.88;1732988;80;26589;-66
2022/08/19 04:44:00;;;;;;;19.17;10.60;;;;;;;23.61;58.79;100015.23;1702144;82;27481;-68
2022/08/19 04:46:28;;;;;;;18.52;11.03;;;;;;;23.62;58.82;100016.09;1721878;81;26650;-66
2022/08/19 04:48:56;;;;;;;15.40;10.35;;;;;;;23.65;58.89;100018.50;1719122;80;99150;-66
2022/08/19 04:51:22;;;;;;;17.75;10.80;;;;;;;23.68;58.90;100020.05;1725996;80;26084;-66
2022/08/19 04:53:48;;;;;;;20.85;10.28;;;;;;;23.67;58.84;100008.25;1725401;81;99080;-66
2022/08/19 04:56:20;;;;;;;16.93;10.88;;;;;;;23.64;58.92;99999.86;1716098;80;27501;-66
2022/08/19 04:58:46;;;;;;;14.28;10.38;;;;;;;23.63;58.91;99988.57;1722462;81;26101;-66
2022/08/19 05:01:20;;;;;;;18.45;10.18;;;;;;;23.64;58.99;100003.97;1715998;80;98851;-66
2022/08/19 05:03:47;;;;;;;17.70;10.55;;;;;;;23.66;59.08;100022.95;1713258;81;26037;-66
2022/08/19 05:06:16;;;;;;;16.77;10.68;;;;;;;23.71;59.09;100021.94;1726015;81;99093;-68
2022/08/19 05:08:44;;;;;;;20.55;10.95;;;;;;;23.74;59.00;99998.35;1722576;81;27388;-67
2022/08/19 05:11:29;;;;;;;20.90;10.25;;;;;;;23.69;58.96;99996.62;1724900;81;99154;-67
2022/08/19 05:13:57;;;;;;;16.48;11.15;;;;;;;23.64;59.12;99997.12;1717133;81;25762;-65
2022/08/19 05:16:25;;;;;;;22.27;11.55;;;;;;;23.66;59.19;99992.86;1720777;81;25996;-66
2022/08/19 05:24:23;;;;;;;21.05;11.45;;;;;;;23.69;59.26;99984.83;1717367;80;98838;-67
2022/08/19 05:26:52;;;;;;;15.30;11.00;;;;;;;23.67;59.23;99984.98;1718740;81;25795;-66
2022/08/19 05:29:21;;;;;;;17.75;10.98;;;;;;;23.69;59.29;99980.20;1722436;81;99112;-66
2022/08/19 05:31:51;;;;;;;20.12;11.90;;;;;;;23.73;59.31;99972.01;1716138;80;25942;-65
2022/08/19 05:34:25;;;;;;;16.77;11.43;;;;;;;23.76;59.35;99984.50;1719056;81;27387;-59
2022/08/19 05:36:56;;;;;;;19.07;11.55;;;;;;;23.78;59.32;99987.93;1725325;81;98895;-61
2022/08/19 05:39:26;;;;;;;19.45;10.93;;;;;;;23.83;59.35;99980.07;1720083;81;25846;-60
2022/08/19 05:42:00;;;;;;;17.42;10.38;;;;;;;23.90;59.38;99977.01;1713485;81;98796;-59
2022/08/19 05:44:31;;;;;;;17.02;11.15;;;;;;;23.93;59.34;99975.30;1713673;81;25835;-60
2022/08/19 05:46:59;;;;;;;16.82;10.72;;;;;;;23.95;59.27;99973.25;1717023;81;27452;-59
2022/08/19 05:49:27;;;;;;;18.73;11.18;;;;;;;23.98;59.29;99977.53;1712688;81;98590;-60
2022/08/19 05:51:55;;;;;;;16.00;10.60;;;;;;;24.03;59.32;99977.38;1708765;81;26206;-59
2022/08/19 05:54:23;;;;;;;18.85;10.55;;;;;;;24.10;59.30;99966.09;1707749;81;98815;-60
2022/08/19 05:56:51;;;;;;;17.32;11.10;;;;;;;24.13;59.21;99961.64;1711092;81;25814;-59
2022/08/19 05:59:21;;;;;;;15.83;10.03;;;;;;;24.10;59.17;99952.39;1708735;81;99076;-59
2022/08/19 06:01:51;;;;;;;20.55;10.98;;;;;;;24.11;59.18;99953.25;1713198;81;26408;-60
2022/08/19 06:04:20;;;;;;;16.07;10.43;;;;;;;24.15;59.19;99950.00;1706409;81;25797;-60
2022/08/19 06:06:51;;;;;;;24.75;11.55;;;;;;;24.19;59.17;99953.25;1703230;81;98768;-60
2022/08/19 06:09:18;;;;;;;21.00;10.93;;;;;;;24.23;59.12;99966.95;1714789;82;25758;-60
2022/08/19 06:11:53;;;;;;;18.92;10.60;;;;;;;24.27;59.11;99976.56;1709962;82;98977;-60
2022/08/19 06:14:25;;;;;;;20.02;11.57;;;;;;;24.32;59.09;99979.66;1711715;81;26860;-60
2022/08/19 06:16:52;;;;;;;15.80;9.50;;;;;;;24.38;59.06;99981.70;1714844;81;26445;-60
2022/08/19 06:19:21;;;;;;;19.95;10.38;;;;;;;24.41;59.00;99969.03;1710714;81;98682;-60
2022/08/19 06:21:50;;;;;;;13.80;10.08;;;;;;;24.45;58.96;99970.41;1716870;81;26308;-60
2022/08/19 06:24:23;;;;;;;16.30;10.58;;;;;;;24.49;58.96;99961.33;1719754;81;98827;-60
2022/08/19 06:26:52;;;;;;;14.60;10.43;;;;;;;24.54;58.87;99967.14;1714903;82;25893;-60
2022/08/19 06:29:23;;;;;;;18.90;10.68;;;;;;;24.59;58.86;99963.37;1719932;81;99176;-60
2022/08/19 06:31:53;;;;;;;22.85;11.35;;;;;;;24.65;58.83;99962.68;1714142;81;26118;-60
2022/08/19 06:34:20;;;;;;;13.43;10.00;;;;;;;24.70;58.78;99960.27;1722812;81;25846;-61
2022/08/19 06:36:51;;;;;;;15.65;10.98;;;;;;;24.78;58.76;99958.03;1727216;79;98879;-60
2022/08/19 06:39:22;;;;;;;16.32;11.35;;;;;;;24.83;58.66;99957.00;1759349;79;26556;-60
2022/08/19 06:41:52;;;;;;;16.40;10.93;;;;;;;24.89;58.63;99954.92;1746985;79;99035;-60
2022/08/19 06:44:21;;;;;;;18.07;10.45;;;;;;;24.93;58.49;99953.03;1756286;79;32537;-60
2022/08/19 06:46:48;;;;;;;16.62;10.53;;;;;;;24.97;58.47;99949.97;1765638;79;25790;-60
2022/08/19 06:49:17;;;;;;;19.48;11.03;;;;;;;25.03;58.43;99954.23;1757493;79;98930;-60
2022/08/19 06:51:48;;;;;;;23.02;11.12;;;;;;;25.07;58.35;99967.08;1756525;79;25785;-60
2022/08/19 06:54:17;;;;;;;23.90;11.45;;;;;;;25.08;58.21;99973.75;1758682;79;98932;-60
2022/08/19 06:56:45;;;;;;;23.73;10.82;;;;;;;25.12;58.21;99977.86;1755074;79;26047;-60
2022/08/19 06:59:15;;;;;;;18.98;10.25;;;;;;;25.17;58.18;99975.95;1759342;79;99054;-60
2022/08/19 07:01:46;;;;;;;26.85;10.60;;;;;;;25.25;58.14;99981.41;1756476;79;27370;-60
2022/08/19 07:04:16;;;;;;;13.20;9.78;;;;;;;25.32;58.06;99973.33;1747735;79;25932;-58
2022/08/19 07:06:44;;;;;;;17.02;10.45;;;;;;;25.39;57.99;99973.81;1761191;79;98743;-58
2022/08/19 07:09:15;;;;;;;26.27;11.65;;;;;;;25.51;58.03;99977.87;1756992;79;26556;-58
2022/08/19 07:11:47;;;;;;;16.97;10.90;;;;;;;25.67;57.90;99979.71;1744777;79;99171;-57
2022/08/19 07:14:16;;;;;;;14.73;10.08;;;;;;;25.82;57.70;99980.66;1747142;79;27441;-59
2022/08/19 07:16:41;;;;;;;14.55;10.58;;;;;;;25.93;57.47;99993.63;1758753;79;25772;-60
2022/08/19 07:19:07;;;;;;;21.85;10.48;;;;;;;25.95;57.27;99989.67;1748284;79;98829;-59
2022/08/19 07:21:33;;;;;;;19.05;10.85;;;;;;;25.98;57.12;100004.93;1750804;79;26596;-60
2022/08/19 07:23:59;;;;;;;19.90;10.63;;;;;;;26.03;57.12;100009.33;1729717;79;99668;-57
2022/08/19 07:26:33;;;;;;;20.48;10.70;;;;;;;26.11;56.96;100006.02;1754119;79;27472;-58
2022/08/19 07:29:01;;;;;;;15.78;10.43;;;;;;;26.23;56.87;100009.70;1759875;79;25867;-57
2022/08/19 07:31:28;;;;;;;14.53;10.88;;;;;;;26.30;56.70;100013.44;1762344;79;98889;-59
2022/08/19 07:33:56;;;;;;;22.42;11.65;;;;;;;26.39;56.57;100015.11;1756588;79;26176;-57
2022/08/19 07:36:30;;;;;;;16.70;11.20;;;;;;;26.46;56.45;100018.32;1750998;79;99010;-57
2022/08/19 07:38:55;;;;;;;15.30;11.48;;;;;;;26.59;56.30;100022.34;1754398;79;27350;-57
2022/08/19 07:41:24;;;;;;;17.90;11.38;;;;;;;26.66;56.09;100015.91;1761448;79;99136;-60
2022/08/19 07:43:51;;;;;;;17.73;10.85;;;;;;;26.69;55.94;100027.92;1753756;79;26400;-58
2022/08/19 07:46:20;;;;;;;17.10;10.93;;;;;;;26.71;55.79;100029.96;1754732;79;26615;-59
2022/08/19 07:48:49;;;;;;;25.97;12.00;;;;;;;26.76;55.70;100037.13;1751471;79;99057;-58
2022/08/19 07:51:20;;;;;;;18.73;11.27;;;;;;;26.83;55.61;100036.73;1748253;79;27371;-58
2022/08/19 07:53:50;;;;;;;17.65;10.63;;;;;;;26.91;55.48;100039.92;1754691;79;99235;-57
2022/08/19 07:56:19;;;;;;;24.90;11.12;;;;;;;26.98;55.39;100027.68;1756481;79;25769;-58
2022/08/19 07:58:49;;;;;;;16.17;10.68;;;;;;;27.03;55.21;100026.08;1758605;79;27110;-58
2022/08/19 08:01:20;;;;;;;20.70;11.97;;;;;;;27.10;55.07;100023.43;1766687;79;99036;-58
2022/08/19 08:09:21;;;;;;;17.02;12.03;;;;;;;27.31;54.76;100016.66;1754951;79;25716;-59
2022/08/19 08:11:59;;;;;;;13.88;11.25;;;;;;;27.37;54.55;100015.05;1751870;79;100035;-59
2022/08/19 08:14:30;;;;;;;16.05;10.93;;;;;;;27.43;54.49;100011.53;1750225;79;25704;-57
2022/08/19 08:16:57;;;;;;;17.07;10.35;;;;;;;27.47;54.35;100010.95;1762997;79;27593;-59
2022/08/19 08:19:25;;;;;;;24.25;11.43;;;;;;;27.55;54.28;100007.77;1754613;79;98774;-57
2022/08/19 08:21:57;;;;;;;20.90;12.03;;;;;;;27.62;54.17;100004.62;1751301;79;25736;-57
2022/08/19 08:24:27;;;;;;;16.25;11.33;;;;;;;27.66;54.00;99998.53;1755712;79;98988;-58
2022/08/19 08:26:53;;;;;;;26.57;11.45;;;;;;;27.76;53.95;100010.63;1754094;79;26810;-60
2022/08/19 08:29:19;;;;;;;19.20;12.37;;;;;;;27.84;53.83;100006.37;1758799;79;99185;-58
2022/08/19 08:31:47;;;;;;;20.05;11.05;;;;;;;27.91;53.71;100011.44;1757193;79;25623;-58
2022/08/19 08:34:14;;;;;;;20.95;12.07;;;;;;;27.99;53.58;100005.81;1740772;79;26520;-58
2022/08/19 08:36:44;;;;;;;16.87;11.00;;;;;;;28.08;53.49;100013.44;1752184;79;99098;-57
2022/08/19 08:39:18;;;;;;;18.25;10.75;;;;;;;28.16;53.31;100012.46;1752844;79;25777;-59
2022/08/19 08:42:01;;;;;;;17.12;12.28;;;;;;;28.22;53.20;100018.57;1751069;79;99608;-60
2022/08/19 08:45:05;;;;;;;20.85;11.12;;;;;;;28.28;53.10;100015.91;1758183;79;25826;-57
2022/08/19 08:47:36;;;;;;;19.07;13.15;;;;;;;28.37;52.98;100026.29;1746036;79;99184;-57
2022/08/19 08:50:18;;;;;;;15.80;12.13;;;;;;;28.43;52.80;100025.50;1748239;79;26876;-57
2022/08/19 08:52:49;;;;;;;24.75;13.38;;;;;;;28.52;52.72;100028.45;1764180;79;25762;-57
2022/08/19 08:55:19;;;;;;;18.10;12.88;;;;;;;28.56;52.49;100030.30;1752867;79;99060;-57
2022/08/19 08:58:03;;;;;;;20.60;12.10;;;;;;;28.60;52.42;100035.21;1747944;79;25747;-60
2022/08/19 09:00:36;;;;;;;19.12;11.68;;;;;;;28.65;52.29;100033.20;1755173;79;99013;-57
2022/08/19 09:03:06;;;;;;;17.50;11.48;;;;;;;28.70;52.21;100026.05;1755347;79;26116;-58
2022/08/19 09:05:44;;;;;;;20.82;12.23;;;;;;;28.77;52.11;100023.34;1767185;79;99163;-58
2022/08/19 09:08:35;;;;;;;21.48;11.53;;;;;;;28.78;51.80;100023.67;1758569;79;27391;-58
2022/08/19 09:11:09;;;;;;;16.25;12.23;;;;;;;28.79;51.83;100024.00;1761639;79;25699;-57
2022/08/19 09:14:01;;;;;;;21.85;12.47;;;;;;;28.86;51.71;100023.56;1755460;79;98819;-58
2022/08/19 09:16:27;;;;;;;15.68;11.97;;;;;;;28.88;51.51;100017.31;1755221;79;26086;-57
2022/08/19 09:18:58;;;;;;;18.85;12.35;;;;;;;28.97;51.45;100020.78;1751902;79;99097;-57
2022/08/19 09:21:27;;;;;;;14.10;11.75;;;;;;;29.04;51.25;100018.39;1732630;79;27485;-60
2022/08/19 09:23:53;;;;;;;12.45;10.65;;;;;;;29.11;51.15;100025.34;1750731;79;99304;-59
2022/08/19 09:26:22;;;;;;;18.17;12.03;;;;;;;29.15;51.03;100021.13;1746173;79;26219;-57
2022/08/19 09:28:52;;;;;;;16.73;11.63;;;;;;;29.17;50.86;100016.25;1752267;79;26026;-57
2022/08/19 09:31:23;;;;;;;18.02;11.65;;;;;;;29.23;50.72;100019.59;1741974;79;99207;-58
2022/08/19 09:33:51;;;;;;;21.42;11.12;;;;;;;29.28;50.61;100013.45;1752336;79;28283;-57
2022/08/19 09:36:22;;;;;;;20.20;11.97;;;;;;;29.33;50.41;100026.97;1745208;79;98970;-57
2022/08/19 09:38:48;;;;;;;13.48;11.05;;;;;;;29.42;50.26;100026.31;1746532;79;25881;-60
2022/08/19 09:41:18;;;;;;;17.70;10.68;;;;;;;29.49;50.11;100016.16;1742399;80;26062;-58
2022/08/19 09:43:46;;;;;;;16.82;11.75;;;;;;;29.55;49.95;100024.16;1685374;82;99321;-59
2022/08/19 09:46:12;;;;;;;20.27;11.03;;;;;;;29.59;49.90;100020.78;1739329;80;27304;-60
2022/08/19 09:48:41;;;;;;;17.10;10.58;;;;;;;29.65;49.67;100014.44;1731191;80;99115;-57
2022/08/19 09:51:11;;;;;;;15.72;11.75;;;;;;;29.66;49.52;100007.86;1737446;80;25798;-60
2022/08/19 09:53:38;;;;;;;14.53;11.80;;;;;;;29.72;49.26;100003.42;1733760;80;99609;-59
2022/08/19 09:56:06;;;;;;;17.90;11.25;;;;;;;29.73;49.20;100003.21;1727159;80;25817;-58
2022/08/19 09:58:34;;;;;;;15.43;10.45;;;;;;;29.77;49.12;100012.47;1753964;79;28074;-59
2022/08/19 10:01:02;;;;;;;17.52;11.12;;;;;;;29.79;49.07;100012.59;1748892;79;99055;-58
2022/08/19 10:03:29;;;;;;;17.90;9.38;;;;;;;29.84;48.90;100009.20;1738700;80;26397;-58
2022/08/19 10:05:59;;;;;;;15.23;10.00;;;;;;;29.88;48.31;100015.49;1695920;82;99090;-58
2022/08/19 10:08:30;;;;;;;17.32;8.85;;;;;;;29.91;48.11;100013.70;1706429;82;25813;-58
2022/08/19 10:10:57;;;;;;;23.25;9.48;;;;;;;30.03;47.91;100021.74;1744094;80;27403;-58
2022/08/19 10:13:26;;;;;;;15.68;9.15;;;;;;;30.13;47.48;100013.05;1744457;80;98852;-58
2022/08/19 10:15:56;;;;;;;14.25;9.30;;;;;;;30.13;47.06;100010.82;1738096;80;25797;-58
2022/08/19 10:18:24;;;;;;;32.35;9.98;;;;;;;30.16;47.06;100006.26;1740176;80;98951;-58
2022/08/19 10:20:53;;;;;;;19.02;9.33;;;;;;;30.24;46.88;100002.77;1744256;80;25868;-58
2022/08/19 10:23:21;;;;;;;14.90;9.00;;;;;;;30.36;46.70;99992.79;1761626;79;28198;-59
2022/08/19 10:25:48;;;;;;;14.05;9.10;;;;;;;30.43;46.54;99985.03;1747870;80;98473;-58
2022/08/19 10:28:14;;;;;;;18.15;9.63;;;;;;;30.39;46.24;99970.78;1704219;82;26552;-59
2022/08/19 10:30:41;;;;;;;12.53;9.38;;;;;;;30.42;46.27;99965.36;1731236;80;98829;-58
2022/08/19 10:33:07;;;;;;;12.88;9.70;;;;;;;30.51;46.21;99962.17;1747809;80;25763;-58
2022/08/19 10:35:33;;;;;;;13.85;9.98;;;;;;;30.56;45.93;99974.83;1750196;80;98804;-58
2022/08/19 10:38:01;;;;;;;16.32;9.30;;;;;;;30.63;45.59;99973.48;1740282;80;25853;-58
2022/08/19 10:40:28;;;;;;;21.23;9.13;;;;;;;30.67;45.27;99964.55;1700980;82;25744;-58
2022/08/19 10:42:55;;;;;;;14.63;8.03;;;;;;;30.72;45.32;99958.91;1718054;82;98719;-58
2022/08/19 10:45:26;;;;;;;16.30;8.98;;;;;;;30.81;45.23;99957.62;1712009;81;25841;-58
2022/08/19 10:47:52;;;;;;;17.05;9.40;;;;;;;30.87;45.13;99965.06;1696926;82;98907;-58
2022/08/19 10:53:11;;;;;;;17.62;9.53;;;;;;;31.03;44.89;99971.53;1718926;81;26394;-62
2022/08/19 10:58:22;;;;;;;16.50;8.23;;;;;;;31.30;44.57;99981.48;1722746;81;25805;-63
2022/08/19 11:00:59;;;;;;;14.35;8.53;;;;;;;31.40;44.33;99979.64;1719604;81;99144;-61
2022/08/19 11:03:29;;;;;;;17.25;9.45;;;;;;;31.50;44.09;99980.03;1713971;81;26169;-61
2022/08/19 11:06:00;;;;;;;13.72;8.70;;;;;;;31.63;43.92;99983.29;1728450;81;99352;-61
2022/08/19 11:08:26;;;;;;;12.03;8.50;;;;;;;31.68;43.46;99965.47;1720088;81;26277;-61
2022/08/19 11:11:00;;;;;;;27.87;9.03;;;;;;;31.70;43.30;99969.44;1725210;80;25793;-60
2022/08/19 11:13:23;;;;;;;13.48;8.23;;;;;;;31.68;42.75;99971.02;1731344;80;98773;-60
2022/08/19 11:16:13;;;;;;;18.70;8.48;;;;;;;31.71;42.76;99978.92;1721725;81;25819;-60
2022/08/19 11:18:43;;;;;;;12.33;8.18;;;;;;;31.74;42.71;99972.94;1720111;81;98744;-61
2022/08/19 11:21:17;;;;;;;15.95;8.30;;;;;;;31.82;42.36;99974.06;1724107;80;26029;-59
2022/08/19 11:23:44;;;;;;;14.58;7.78;;;;;;;31.87;42.20;99974.26;1724526;80;98924;-59
2022/08/19 11:26:10;;;;;;;13.43;9.20;;;;;;;31.81;41.98;99961.81;1714419;81;28188;-63
2022/08/19 11:28:37;;;;;;;12.58;8.48;;;;;;;31.84;41.97;99964.15;1720124;81;25950;-61
2022/08/19 11:31:03;;;;;;;14.47;8.43;;;;;;;31.98;41.73;99980.17;1730883;81;98742;-60
2022/08/19 11:33:31;;;;;;;14.53;8.18;;;;;;;32.11;41.60;99978.70;1718277;81;26710;-60
2022/08/19 11:36:00;;;;;;;17.25;8.70;;;;;;;32.18;41.37;99990.08;1730426;80;98745;-61
2022/08/19 11:38:26;;;;;;;15.08;8.60;;;;;;;32.27;41.24;99987.38;1722809;80;26953;-60
2022/08/19 11:40:59;;;;;;;17.87;8.05;;;;;;;32.26;41.06;99990.38;1717380;81;25735;-60
2022/08/19 11:43:26;;;;;;;19.50;8.45;;;;;;;32.34;41.22;99988.72;1720844;81;98840;-60
2022/08/19 11:45:55;;;;;;;13.78;8.30;;;;;;;32.50;41.10;99990.95;1718809;81;26594;-60